createdAt,value
2023-04-02T06:06:18.548Z,2.50
2023-04-02T06:08:56.357Z,2.50
2023-04-02T06:11:42.118Z,2.60
2023-04-02T06:14:13.134Z,2.70
2023-04-02T06:16:40.816Z,2.80
2023-04-02T06:19:22.472Z,2.90
2023-04-02T06:21:52.510Z,2.90
2023-04-02T06:24:26.060Z,2.90
2023-04-02T06:27:16.429Z,2.90
2023-04-02T06:29:48.080Z,2.90
2023-04-02T06:32:23.027Z,3.00
2023-04-02T06:34:50.298Z,3.10
2023-04-02T06:37:39.425Z,3.10
2023-04-02T06:40:29.131Z,3.10
2023-04-02T06:43:00.199Z,3.10
2023-04-02T06:45:42.156Z,3.10
2023-04-02T06:48:27.433Z,3.20
2023-04-02T06:51:05.001Z,3.20
2023-04-02T06:53:38.782Z,3.30
2023-04-02T06:56:28.340Z,3.30
2023-04-02T06:58:55.415Z,3.20
2023-04-02T07:01:27.840Z,3.40
2023-04-02T07:03:55.325Z,3.30
2023-04-02T07:06:28.114Z,3.20
2023-04-02T07:08:58.974Z,3.30
2023-04-02T07:11:26.206Z,3.30
2023-04-02T07:13:55.925Z,3.20
2023-04-02T07:16:25.794Z,3.30
2023-04-02T07:18:55.453Z,3.30
2023-04-02T07:21:26.080Z,3.30
2023-04-02T07:23:53.542Z,3.20
2023-04-02T07:26:27.283Z,3.20
2023-04-02T07:28:55.899Z,3.40
2023-04-02T07:31:28.029Z,3.50
2023-04-02T07:33:58.371Z,3.50
2023-04-02T07:36:25.772Z,3.40
2023-04-02T07:38:52.692Z,3.30
2023-04-02T07:41:20.904Z,3.40
2023-04-02T07:43:48.140Z,3.50
2023-04-02T07:46:17.472Z,3.40
2023-04-02T07:48:45.055Z,3.50
2023-04-02T07:51:18.126Z,3.50
2023-04-02T07:57:27.296Z,3.60
2023-04-02T07:59:56.829Z,3.70
2023-04-02T08:02:34.863Z,3.70
2023-04-02T08:05:15.673Z,3.80
2023-04-02T08:07:43.936Z,3.80
2023-04-02T08:10:12.655Z,3.70
2023-04-02T08:12:47.756Z,3.80
2023-04-02T08:15:51.395Z,3.80
2023-04-02T08:18:28.718Z,3.70
2023-04-02T08:21:38.397Z,3.70
2023-04-02T08:24:17.616Z,3.70
2023-04-02T08:26:51.716Z,3.80
2023-04-02T08:29:26.618Z,3.80
2023-04-02T08:31:55.330Z,3.90
2023-04-02T08:34:22.014Z,4.00
2023-04-02T08:36:48.752Z,3.90
2023-04-02T08:39:15.547Z,3.90
2023-04-02T08:41:49.219Z,3.80
2023-04-02T08:44:38.807Z,3.90
2023-04-02T08:47:16.471Z,4.10
2023-04-02T08:50:26.608Z,4.10
2023-04-02T08:53:40.872Z,4.10
2023-04-02T08:56:20.260Z,4.30
2023-04-02T09:02:18.315Z,4.40
2023-04-02T09:04:58.840Z,4.40
2023-04-02T09:07:35.833Z,4.30
2023-04-02T09:10:39.126Z,4.60
2023-04-02T09:13:41.075Z,4.90
2023-04-02T09:16:54.165Z,5.00
2023-04-02T09:19:38.577Z,5.00
2023-04-02T09:22:09.078Z,5.20
2023-04-02T09:24:37.863Z,5.10
2023-04-02T09:27:31.746Z,5.20
2023-04-02T09:30:29.557Z,5.10
2023-04-02T09:33:07.974Z,5.10
2023-04-02T09:35:56.501Z,5.20
2023-04-02T09:38:33.294Z,5.30
2023-04-02T09:41:08.869Z,5.40
2023-04-02T09:43:40.374Z,5.40
2023-04-02T09:46:34.571Z,5.30
2023-04-02T09:49:01.932Z,5.30
2023-04-02T09:51:33.444Z,5.30
2023-04-02T09:54:23.216Z,5.50
2023-04-02T09:57:29.893Z,5.90
2023-04-02T10:00:32.476Z,6.20
2023-04-02T10:03:49.434Z,6.50
2023-04-02T10:06:29.045Z,6.30
2023-04-02T10:09:19.435Z,6.60
2023-04-02T10:11:47.118Z,6.60
2023-04-02T10:14:46.597Z,6.20
2023-04-02T10:17:32.154Z,6.10
2023-04-02T10:20:25.595Z,6.30
2023-04-02T10:22:58.750Z,6.30
2023-04-02T10:29:48.974Z,7.50
2023-04-02T10:32:21.406Z,7.30
2023-04-02T10:35:15.886Z,7.10
2023-04-02T10:37:45.759Z,6.90
2023-04-02T10:40:19.801Z,6.70
2023-04-02T10:43:17.021Z,6.60
2023-04-02T10:45:51.178Z,6.70
2023-04-02T10:48:56.930Z,7.00
2023-04-02T10:51:40.954Z,9.50
2023-04-02T10:54:18.187Z,11.90
2023-04-02T10:56:50.977Z,12.80
2023-04-02T10:59:30.804Z,13.10
2023-04-02T11:02:02.018Z,14.70
2023-04-02T11:04:41.918Z,15.00
2023-04-02T11:07:17.539Z,13.60
2023-04-02T11:09:48.374Z,13.70
2023-04-02T11:12:43.170Z,11.40
2023-04-02T11:15:18.946Z,10.00
2023-04-02T11:17:46.658Z,9.20
2023-04-02T11:20:43.668Z,8.90
2023-04-02T11:23:13.064Z,8.70
2023-04-02T11:25:41.946Z,8.40
2023-04-02T11:28:29.330Z,8.40
2023-04-02T11:30:56.433Z,8.30
2023-04-02T11:33:43.649Z,10.80
2023-04-02T11:36:49.856Z,12.60
2023-04-02T11:39:56.705Z,13.80
2023-04-02T11:42:32.331Z,13.60
2023-04-02T11:45:26.428Z,13.50
2023-04-02T11:48:02.545Z,14.80
2023-04-02T11:50:36.776Z,15.80
2023-04-02T11:53:15.599Z,15.90
2023-04-02T11:55:44.420Z,13.40
2023-04-02T11:58:38.945Z,11.70
2023-04-02T12:01:05.548Z,10.40
2023-04-02T12:03:41.431Z,9.50
2023-04-02T12:06:39.871Z,9.40
2023-04-02T12:09:55.441Z,11.60
2023-04-02T12:12:31.522Z,12.20
2023-04-02T12:14:58.926Z,13.40
2023-04-02T12:17:32.885Z,13.10
2023-04-02T12:20:08.135Z,14.20
2023-04-02T12:22:55.723Z,14.40
2023-04-02T12:25:34.455Z,12.10
2023-04-02T12:28:11.328Z,12.30
2023-04-02T12:30:38.745Z,12.70
2023-04-02T12:33:20.879Z,11.30
2023-04-02T12:35:50.640Z,10.60
2023-04-02T12:38:29.834Z,11.20
2023-04-02T12:41:03.435Z,10.80
2023-04-02T12:43:32.747Z,10.00
2023-04-02T12:46:03.010Z,10.20
2023-04-02T12:48:31.115Z,11.30
2023-04-02T12:50:59.126Z,10.00
2023-04-02T12:53:30.930Z,10.10
2023-04-02T12:55:57.834Z,9.90
2023-04-02T12:58:37.173Z,10.20
2023-04-02T13:01:18.306Z,9.80
2023-04-02T13:04:01.676Z,9.10
2023-04-02T13:06:30.486Z,9.40
2023-04-02T13:08:57.748Z,11.40
2023-04-02T13:11:38.363Z,13.50
2023-04-02T13:14:16.395Z,13.40
2023-04-02T13:16:43.086Z,11.30
2023-04-02T13:19:17.811Z,10.20
2023-04-02T13:21:45.922Z,9.40
2023-04-02T13:24:27.719Z,9.10
2023-04-02T13:26:58.086Z,8.70
2023-04-02T13:29:36.166Z,10.30
2023-04-02T13:32:06.258Z,11.10
2023-04-02T13:34:33.385Z,10.50
2023-04-02T13:37:00.539Z,9.60
2023-04-02T13:39:27.539Z,9.00
2023-04-02T13:42:02.644Z,8.70
2023-04-02T13:44:32.933Z,9.20
2023-04-02T13:47:00.592Z,9.20
2023-04-02T13:49:28.256Z,8.90
2023-04-02T13:51:59.950Z,8.70
2023-04-02T13:54:41.723Z,8.70
2023-04-02T13:57:08.549Z,8.60
2023-04-02T13:59:35.568Z,8.70
2023-04-02T14:02:08.589Z,9.00
2023-04-02T14:04:40.804Z,9.30
2023-04-02T14:07:10.797Z,9.10
2023-04-02T14:10:01.661Z,8.90
2023-04-02T14:12:28.561Z,8.80
2023-04-02T14:15:01.797Z,8.60
2023-04-02T14:17:58.945Z,8.90
2023-04-02T14:20:46.813Z,9.30
2023-04-02T14:23:42.497Z,9.60
2023-04-02T14:26:39.566Z,9.00
2023-04-02T14:29:40.239Z,8.70
2023-04-02T14:32:14.452Z,8.20
2023-04-02T14:35:05.192Z,8.10
2023-04-02T14:37:37.167Z,8.10
2023-04-02T14:40:09.581Z,8.10
2023-04-02T14:42:53.730Z,8.00
2023-04-02T14:45:48.249Z,8.20
2023-04-02T14:48:50.218Z,8.40
2023-04-02T14:51:43.512Z,8.70
2023-04-02T14:54:38.495Z,8.60
2023-04-02T14:57:44.694Z,8.70
2023-04-02T15:00:26.029Z,8.60
2023-04-02T15:03:15.050Z,8.50
2023-04-02T15:05:46.857Z,8.40
2023-04-02T15:08:24.630Z,8.30
2023-04-02T15:11:14.383Z,8.20
2023-04-02T15:14:12.657Z,8.10
2023-04-02T15:16:39.482Z,8.00
2023-04-02T15:19:13.380Z,7.70
2023-04-02T15:22:06.891Z,7.60
2023-04-02T15:25:00.012Z,7.60
2023-04-02T15:27:59.574Z,7.60
2023-04-02T15:30:35.500Z,7.60
2023-04-02T15:33:26.776Z,7.70
2023-04-02T15:36:31.408Z,7.70
2023-04-02T15:39:17.859Z,7.70
2023-04-02T15:42:08.875Z,7.70
2023-04-02T15:44:42.276Z,7.60
2023-04-02T15:47:27.780Z,7.50
2023-04-02T15:50:23.652Z,7.40
2023-04-02T15:52:58.758Z,7.30
2023-04-02T15:55:47.549Z,7.10
2023-04-02T15:58:39.268Z,7.00
2023-04-02T16:01:28.319Z,7.00
2023-04-02T16:04:01.292Z,7.00
2023-04-02T16:06:45.021Z,7.10
2023-04-02T16:09:27.007Z,7.20
2023-04-02T16:12:17.199Z,7.30
2023-04-02T16:14:46.568Z,7.20
2023-04-02T16:17:32.910Z,7.10
2023-04-02T16:20:20.323Z,7.00
2023-04-02T16:23:00.588Z,7.00
2023-04-02T16:25:34.278Z,7.00
2023-04-02T16:28:29.265Z,7.00
2023-04-02T16:31:00.975Z,7.00
2023-04-02T16:33:33.043Z,6.90
2023-04-02T16:36:23.459Z,6.70
2023-04-02T16:39:20.656Z,6.60
2023-04-02T16:42:01.075Z,6.60
2023-04-02T16:44:39.787Z,6.50
2023-04-02T16:47:32.497Z,6.40
2023-04-02T16:50:10.043Z,6.40
2023-04-02T16:52:45.398Z,6.30
2023-04-02T16:55:47.179Z,6.30
2023-04-02T16:58:40.915Z,6.30
2023-04-02T17:01:21.835Z,6.30
2023-04-02T17:03:54.667Z,6.30
2023-04-02T17:06:42.758Z,6.30
2023-04-02T17:09:16.781Z,6.20
2023-04-02T17:11:49.821Z,6.10
2023-04-02T17:14:30.152Z,6.10
2023-04-02T17:17:02.229Z,6.00
2023-04-02T17:19:30.761Z,6.00
2023-04-02T17:22:03.438Z,5.90
2023-04-02T17:24:35.327Z,5.70
2023-04-02T17:27:31.329Z,5.70
2023-04-02T17:30:22.016Z,5.50
2023-04-02T17:32:48.860Z,5.40
2023-04-02T17:35:24.922Z,5.30
2023-04-02T17:38:21.114Z,5.10
2023-04-02T17:40:58.281Z,5.10
2023-04-02T17:43:31.138Z,4.90
2023-04-02T17:46:06.333Z,4.90
2023-04-02T17:48:45.118Z,4.90
2023-04-02T17:51:34.093Z,4.80
2023-04-02T17:54:09.596Z,4.70
2023-04-02T17:56:53.677Z,4.60
2023-04-02T17:59:35.632Z,4.40
2023-04-02T18:02:40.905Z,4.30
2023-04-02T18:05:26.879Z,4.00
2023-04-02T18:08:06.944Z,4.10
2023-04-02T18:10:53.243Z,4.00
2023-04-02T18:13:38.262Z,3.80
2023-04-02T18:16:13.856Z,3.70
2023-04-02T18:18:55.473Z,3.60
2023-04-02T18:21:43.011Z,3.60
2023-04-02T18:24:18.993Z,3.50
2023-04-02T18:27:03.272Z,3.30
2023-04-02T18:29:42.142Z,3.10
2023-04-02T18:32:45.525Z,3.10
2023-04-02T18:35:18.536Z,2.90
2023-04-02T18:38:07.233Z,2.80
2023-04-02T18:40:38.802Z,2.70
2023-04-02T18:43:20.642Z,2.70
2023-04-02T18:46:05.172Z,2.60
2023-04-02T18:48:39.042Z,2.50
2023-04-02T18:51:14.910Z,2.40
2023-04-02T18:53:43.092Z,2.50
2023-04-02T18:56:22.287Z,2.60
2023-04-02T18:58:49.567Z,2.50
2023-04-02T19:01:23.641Z,2.50
2023-04-02T19:04:07.383Z,2.50
2023-04-02T19:06:42.588Z,2.40
2023-04-02T19:09:21.881Z,2.30
2023-04-02T19:11:48.997Z,2.30
